Sjobris — SLXP — position and weather

sailwx.info

Track history (hours):
 
Tides and Currents Weather Stations Pressure Air Temp Water Temp Dewpoint Dewpoint Depression Visibility Wind Speed Wind Dir Waves Ship Positions

Sjobris

Last reported at 2014-Sep-22 19:33 UTC. Time now 2014-Sep-22 20:21 UTC.
Position N 59°20' E 018°04'.

Length 38 m.

Type: Passenger vessel. MMSI: 265522700.

Date/timePositionNaut miles runAvg speedWind from/ knotsBaromVisibWave heightAir tempDewpointWater temp
2014-Sep-22 19:33N 59°20' E 018°04'0 0.0
2014-Sep-22 18:33N 59°20' E 018°04'0 0.0
2014-Sep-22 17:33N 59°20' E 018°04'0 0.0
2014-Sep-22 16:33N 59°20' E 018°04'0 0.0
2014-Sep-22 15:33N 59°20' E 018°04'0 0.0
2014-Sep-22 14:32N 59°20' E 018°04'0 0.0
2014-Sep-22 13:33N 59°20' E 018°04'0 0.0
2014-Sep-22 12:33N 59°20' E 018°04'0 0.0
2014-Sep-22 11:33N 59°20' E 018°04'0 0.0
2014-Sep-22 10:33N 59°20' E 018°04'0 0.0
2014-Sep-22 09:31N 59°20' E 018°04'0 0.0
2014-Sep-22 08:33N 59°20' E 018°04'0 0.0
2014-Sep-22 07:25N 59°20' E 018°04'0 0.0
2014-Sep-22 06:28N 59°20' E 018°04'0 0.0
2014-Sep-22 05:31N 59°20' E 018°04'0 0.0
2014-Sep-22 04:33N 59°20' E 018°04'0 0.0
2014-Sep-22 03:18N 59°20' E 018°04'0 0.0
2014-Sep-22 02:34N 59°20' E 018°04'0 0.0
2014-Sep-22 01:33N 59°20' E 018°04'0 0.0
2014-Sep-22 00:33N 59°20' E 018°04'0 0.0
2014-Sep-21 23:33N 59°20' E 018°04'0 0.0
2014-Sep-21 22:29N 59°20' E 018°04'0 0.0
2014-Sep-21 21:27N 59°20' E 018°04'0 0.0
2014-Sep-21 19:06N 59°20' E 018°04'0 0.1
2014-Sep-21 17:33N 59°20' E 018°04'1 1.2
2014-Sep-21 16:33N 59°19' E 018°07'3 0.3
2014-Sep-21 07:19N 59°20' E 018°11'4 0.4
2014-Sep-20 23:13N 59°20' E 018°04'0 0.0
2014-Sep-20 22:27N 59°20' E 018°04'0 0.0
2014-Sep-20 21:30N 59°20' E 018°04'0 0.0
2014-Sep-20 20:33N 59°20' E 018°04'0 0.0
2014-Sep-20 16:18N 59°20' E 018°04'7 8.7
2014-Sep-20 15:30N 59°23' E 018°17'4 0.5
2014-Sep-20 07:20N 59°20' E 018°11'3 4.5
2014-Sep-20 06:33N 59°20' E 018°04'0 0.1
2014-Sep-20 05:31N 59°20' E 018°04'0 0.0
2014-Sep-20 04:33N 59°20' E 018°04'0 0.0
2014-Sep-20 03:33N 59°20' E 018°04'0 0.0
2014-Sep-20 02:33N 59°20' E 018°04'0 0.0
2014-Sep-20 01:33N 59°20' E 018°04'0 0.0
2014-Sep-20 00:33N 59°20' E 018°04'0 0.0
2014-Sep-19 23:33N 59°20' E 018°04'0 0.0
2014-Sep-19 22:32N 59°20' E 018°04'0 0.0
2014-Sep-19 21:33N 59°20' E 018°04'0 0.0
2014-Sep-19 20:33N 59°20' E 018°04'0 0.0
2014-Sep-19 19:32N 59°20' E 018°04'0 0.0
2014-Sep-19 18:33N 59°20' E 018°04'0 0.0
2014-Sep-19 17:32N 59°20' E 018°04'0 0.0
2014-Sep-19 16:33N 59°20' E 018°04'0 0.0
2014-Sep-19 15:33N 59°20' E 018°04'0 0.0
2014-Sep-19 14:33N 59°20' E 018°04'0 0.0
2014-Sep-19 12:11N 59°20' E 018°04'0 0.0
2014-Sep-19 11:12N 59°20' E 018°04'0 0.0
2014-Sep-19 10:22N 59°20' E 018°04'0 0.0
2014-Sep-19 08:33N 59°20' E 018°04'0 0.0
2014-Sep-19 06:25N 59°20' E 018°04'0 0.0
2014-Sep-19 05:33N 59°20' E 018°04'0 0.0
2014-Sep-19 04:33N 59°20' E 018°04'0 0.0
2014-Sep-19 03:33N 59°20' E 018°04'0 0.0
2014-Sep-19 02:33N 59°20' E 018°04'0 0.0
2014-Sep-19 01:33N 59°20' E 018°04'0 0.0
2014-Sep-19 00:33N 59°20' E 018°04'0 0.0
2014-Sep-18 23:33N 59°20' E 018°04'0 0.0
2014-Sep-18 22:33N 59°20' E 018°04'0 0.0
2014-Sep-18 21:33N 59°20' E 018°04'0 0.0
2014-Sep-18 20:33N 59°20' E 018°04'0 0.0
2014-Sep-18 19:33N 59°20' E 018°04'0 0.0
2014-Sep-18 18:33N 59°20' E 018°04'0 0.0
2014-Sep-18 17:33N 59°20' E 018°04'0 0.0
2014-Sep-18 16:33N 59°20' E 018°04'0 0.0
2014-Sep-18 15:33N 59°20' E 018°04'0 0.0
2014-Sep-18 14:33N 59°20' E 018°04'0 0.0
2014-Sep-18 13:33N 59°20' E 018°04'0 0.0
2014-Sep-18 12:33N 59°20' E 018°04'0 0.0
2014-Sep-18 10:33N 59°20' E 018°04'0 0.0
2014-Sep-18 09:31N 59°20' E 018°04'0 0.0
2014-Sep-18 08:33N 59°20' E 018°04'0 0.0
2014-Sep-18 07:33N 59°20' E 018°04'0 0.0
2014-Sep-18 06:33N 59°20' E 018°04'0 0.0
2014-Sep-18 05:33N 59°20' E 018°04'0 0.0
2014-Sep-18 04:33N 59°20' E 018°04'0 0.0
2014-Sep-18 03:32N 59°20' E 018°04'0 0.0
2014-Sep-17 19:28N 59°20' E 018°04'0 0.0
2014-Sep-17 18:16N 59°20' E 018°04'0 0.0
2014-Sep-17 17:33N 59°20' E 018°04'0 0.0
2014-Sep-17 16:33N 59°20' E 018°04'0 0.0
2014-Sep-17 15:33N 59°20' E 018°04'0 0.0
2014-Sep-17 13:28N 59°20' E 018°04'0 0.0
2014-Sep-17 12:24N 59°20' E 018°04'0 0.0
2014-Sep-17 10:33N 59°20' E 018°04'0 0.0
2014-Sep-17 09:33N 59°20' E 018°04'0 0.0
2014-Sep-17 08:30N 59°20' E 018°04'0 0.0
2014-Sep-17 06:26N 59°20' E 018°04'0 0.0
2014-Sep-17 05:33N 59°20' E 018°04'0 0.0
2014-Sep-17 04:33N 59°20' E 018°04'0 0.0
2014-Sep-16 18:33N 59°20' E 018°04'0 0.0
2014-Sep-16 17:33N 59°20' E 018°04'0 0.0
2014-Sep-16 16:33N 59°20' E 018°04'0 0.0
2014-Sep-16 15:33N 59°20' E 018°04'0 0.0
2014-Sep-16 14:33N 59°20' E 018°04'0 0.0
2014-Sep-16 13:13N 59°20' E 018°04'0 0.0
2014-Sep-16 12:33N 59°20' E 018°04'0 0.0
2014-Sep-15 15:34N 59°20' E 018°04'0 0.0
2014-Sep-15 14:34N 59°20' E 018°04'0 0.0
2014-Sep-15 13:32N 59°20' E 018°04'0 0.0
2014-Sep-15 12:14N 59°20' E 018°04'0 0.0
2014-Sep-15 10:33N 59°20' E 018°04'0 0.0
2014-Sep-15 09:22N 59°20' E 018°04'0 0.0
2014-Sep-15 08:33N 59°20' E 018°04'0 0.0
2014-Sep-15 06:33N 59°20' E 018°04'0 0.0
2014-Sep-15 05:32N 59°20' E 018°04'0 0.0
2014-Sep-15 04:33N 59°20' E 018°04'0 0.0
2014-Sep-15 03:33N 59°20' E 018°04'0 0.0
2014-Sep-15 02:34N 59°20' E 018°04'0 0.0
2014-Sep-15 01:34N 59°20' E 018°04'0 0.0
2014-Sep-15 00:33N 59°20' E 018°04'0 0.0
2014-Sep-14 23:33N 59°20' E 018°04'0 0.0
2014-Sep-14 22:33N 59°20' E 018°04'0 0.0
2014-Sep-14 21:33N 59°20' E 018°04'0 0.0
2014-Sep-14 20:33N 59°20' E 018°04'0 0.0
2014-Sep-14 19:33N 59°20' E 018°04'0 0.0
2014-Sep-14 18:33N 59°20' E 018°04'1 0.7
2014-Sep-14 16:33N 59°19' E 018°07'2 0.3
2014-Sep-14 07:23N 59°20' E 018°12'4 0.3
2014-Sep-13 15:17N 59°23' E 018°18'4 0.5
2014-Sep-13 07:19N 59°20' E 018°12'4 3.9
2014-Sep-13 06:25N 59°20' E 018°05'0 0.0
2014-Sep-13 05:33N 59°20' E 018°05'0 0.0
2014-Sep-13 04:30N 59°20' E 018°05'0 0.0
2014-Sep-13 03:33N 59°20' E 018°05'0 0.0
2014-Sep-13 02:33N 59°20' E 018°05'0 0.0
2014-Sep-13 01:33N 59°20' E 018°05'0 0.0
2014-Sep-13 00:33N 59°20' E 018°05'0 0.0
2014-Sep-12 23:31N 59°20' E 018°05'0 0.0
2014-Sep-12 22:33N 59°20' E 018°05'0 0.0
2014-Sep-12 21:26N 59°20' E 018°05'  
Track history (hours):
 
Tides and Currents Weather Stations Pressure Air Temp Water Temp Dewpoint Dewpoint Depression Visibility Wind Speed Wind Dir Waves Ship Positions

Sjobris

Last reported at 2014-Sep-22 19:33 UTC. Time now 2014-Sep-22 20:21 UTC.
Position N 59°20' E 018°04'.

Length 38 m.

Type: Passenger vessel. MMSI: 265522700.

Date/timePositionNaut miles runAvg speedWind from/ knotsBaromVisibWave heightAir tempDewpointWater temp
2014-Sep-22 19:33N 59°20' E 018°04'0 0.0
2014-Sep-22 18:33N 59°20' E 018°04'0 0.0
2014-Sep-22 17:33N 59°20' E 018°04'0 0.0
2014-Sep-22 16:33N 59°20' E 018°04'0 0.0
2014-Sep-22 15:33N 59°20' E 018°04'0 0.0
2014-Sep-22 14:32N 59°20' E 018°04'0 0.0
2014-Sep-22 13:33N 59°20' E 018°04'0 0.0
2014-Sep-22 12:33N 59°20' E 018°04'0 0.0
2014-Sep-22 11:33N 59°20' E 018°04'0 0.0
2014-Sep-22 10:33N 59°20' E 018°04'0 0.0
2014-Sep-22 09:31N 59°20' E 018°04'0 0.0
2014-Sep-22 08:33N 59°20' E 018°04'0 0.0
2014-Sep-22 07:25N 59°20' E 018°04'0 0.0
2014-Sep-22 06:28N 59°20' E 018°04'0 0.0
2014-Sep-22 05:31N 59°20' E 018°04'0 0.0
2014-Sep-22 04:33N 59°20' E 018°04'0 0.0
2014-Sep-22 03:18N 59°20' E 018°04'0 0.0
2014-Sep-22 02:34N 59°20' E 018°04'0 0.0
2014-Sep-22 01:33N 59°20' E 018°04'0 0.0
2014-Sep-22 00:33N 59°20' E 018°04'0 0.0
2014-Sep-21 23:33N 59°20' E 018°04'0 0.0
2014-Sep-21 22:29N 59°20' E 018°04'0 0.0
2014-Sep-21 21:27N 59°20' E 018°04'0 0.0
2014-Sep-21 19:06N 59°20' E 018°04'0 0.1
2014-Sep-21 17:33N 59°20' E 018°04'1 1.2
2014-Sep-21 16:33N 59°19' E 018°07'3 0.3
2014-Sep-21 07:19N 59°20' E 018°11'4 0.4
2014-Sep-20 23:13N 59°20' E 018°04'0 0.0
2014-Sep-20 22:27N 59°20' E 018°04'0 0.0
2014-Sep-20 21:30N 59°20' E 018°04'0 0.0
2014-Sep-20 20:33N 59°20' E 018°04'0 0.0
2014-Sep-20 16:18N 59°20' E 018°04'7 8.7
2014-Sep-20 15:30N 59°23' E 018°17'4 0.5
2014-Sep-20 07:20N 59°20' E 018°11'3 4.5
2014-Sep-20 06:33N 59°20' E 018°04'0 0.1
2014-Sep-20 05:31N 59°20' E 018°04'0 0.0
2014-Sep-20 04:33N 59°20' E 018°04'0 0.0
2014-Sep-20 03:33N 59°20' E 018°04'0 0.0
2014-Sep-20 02:33N 59°20' E 018°04'0 0.0
2014-Sep-20 01:33N 59°20' E 018°04'0 0.0
2014-Sep-20 00:33N 59°20' E 018°04'0 0.0
2014-Sep-19 23:33N 59°20' E 018°04'0 0.0
2014-Sep-19 22:32N 59°20' E 018°04'0 0.0
2014-Sep-19 21:33N 59°20' E 018°04'0 0.0
2014-Sep-19 20:33N 59°20' E 018°04'0 0.0
2014-Sep-19 19:32N 59°20' E 018°04'0 0.0
2014-Sep-19 18:33N 59°20' E 018°04'0 0.0
2014-Sep-19 17:32N 59°20' E 018°04'0 0.0
2014-Sep-19 16:33N 59°20' E 018°04'0 0.0
2014-Sep-19 15:33N 59°20' E 018°04'0 0.0
2014-Sep-19 14:33N 59°20' E 018°04'0 0.0
2014-Sep-19 12:11N 59°20' E 018°04'0 0.0
2014-Sep-19 11:12N 59°20' E 018°04'0 0.0
2014-Sep-19 10:22N 59°20' E 018°04'0 0.0
2014-Sep-19 08:33N 59°20' E 018°04'0 0.0
2014-Sep-19 06:25N 59°20' E 018°04'0 0.0
2014-Sep-19 05:33N 59°20' E 018°04'0 0.0
2014-Sep-19 04:33N 59°20' E 018°04'0 0.0
2014-Sep-19 03:33N 59°20' E 018°04'0 0.0
2014-Sep-19 02:33N 59°20' E 018°04'0 0.0
2014-Sep-19 01:33N 59°20' E 018°04'0 0.0
2014-Sep-19 00:33N 59°20' E 018°04'0 0.0
2014-Sep-18 23:33N 59°20' E 018°04'0 0.0
2014-Sep-18 22:33N 59°20' E 018°04'0 0.0
2014-Sep-18 21:33N 59°20' E 018°04'0 0.0
2014-Sep-18 20:33N 59°20' E 018°04'0 0.0
2014-Sep-18 19:33N 59°20' E 018°04'0 0.0
2014-Sep-18 18:33N 59°20' E 018°04'0 0.0
2014-Sep-18 17:33N 59°20' E 018°04'0 0.0
2014-Sep-18 16:33N 59°20' E 018°04'0 0.0
2014-Sep-18 15:33N 59°20' E 018°04'0 0.0
2014-Sep-18 14:33N 59°20' E 018°04'0 0.0
2014-Sep-18 13:33N 59°20' E 018°04'0 0.0
2014-Sep-18 12:33N 59°20' E 018°04'0 0.0
2014-Sep-18 10:33N 59°20' E 018°04'0 0.0
2014-Sep-18 09:31N 59°20' E 018°04'0 0.0
2014-Sep-18 08:33N 59°20' E 018°04'0 0.0
2014-Sep-18 07:33N 59°20' E 018°04'0 0.0
2014-Sep-18 06:33N 59°20' E 018°04'0 0.0
2014-Sep-18 05:33N 59°20' E 018°04'0 0.0
2014-Sep-18 04:33N 59°20' E 018°04'0 0.0
2014-Sep-18 03:32N 59°20' E 018°04'0 0.0
2014-Sep-17 19:28N 59°20' E 018°04'0 0.0
2014-Sep-17 18:16N 59°20' E 018°04'0 0.0
2014-Sep-17 17:33N 59°20' E 018°04'0 0.0
2014-Sep-17 16:33N 59°20' E 018°04'0 0.0
2014-Sep-17 15:33N 59°20' E 018°04'0 0.0
2014-Sep-17 13:28N 59°20' E 018°04'0 0.0
2014-Sep-17 12:24N 59°20' E 018°04'0 0.0
2014-Sep-17 10:33N 59°20' E 018°04'0 0.0
2014-Sep-17 09:33N 59°20' E 018°04'0 0.0
2014-Sep-17 08:30N 59°20' E 018°04'0 0.0
2014-Sep-17 06:26N 59°20' E 018°04'0 0.0
2014-Sep-17 05:33N 59°20' E 018°04'0 0.0
2014-Sep-17 04:33N 59°20' E 018°04'0 0.0
2014-Sep-16 18:33N 59°20' E 018°04'0 0.0
2014-Sep-16 17:33N 59°20' E 018°04'0 0.0
2014-Sep-16 16:33N 59°20' E 018°04'0 0.0
2014-Sep-16 15:33N 59°20' E 018°04'0 0.0
2014-Sep-16 14:33N 59°20' E 018°04'0 0.0
2014-Sep-16 13:13N 59°20' E 018°04'0 0.0
2014-Sep-16 12:33N 59°20' E 018°04'0 0.0
2014-Sep-15 15:34N 59°20' E 018°04'0 0.0
2014-Sep-15 14:34N 59°20' E 018°04'0 0.0
2014-Sep-15 13:32N 59°20' E 018°04'0 0.0
2014-Sep-15 12:14N 59°20' E 018°04'0 0.0
2014-Sep-15 10:33N 59°20' E 018°04'0 0.0
2014-Sep-15 09:22N 59°20' E 018°04'0 0.0
2014-Sep-15 08:33N 59°20' E 018°04'0 0.0
2014-Sep-15 06:33N 59°20' E 018°04'0 0.0
2014-Sep-15 05:32N 59°20' E 018°04'0 0.0
2014-Sep-15 04:33N 59°20' E 018°04'0 0.0
2014-Sep-15 03:33N 59°20' E 018°04'0 0.0
2014-Sep-15 02:34N 59°20' E 018°04'0 0.0
2014-Sep-15 01:34N 59°20' E 018°04'0 0.0
2014-Sep-15 00:33N 59°20' E 018°04'0 0.0
2014-Sep-14 23:33N 59°20' E 018°04'0 0.0
2014-Sep-14 22:33N 59°20' E 018°04'0 0.0
2014-Sep-14 21:33N 59°20' E 018°04'0 0.0
2014-Sep-14 20:33N 59°20' E 018°04'0 0.0
2014-Sep-14 19:33N 59°20' E 018°04'0 0.0
2014-Sep-14 18:33N 59°20' E 018°04'1 0.7
2014-Sep-14 16:33N 59°19' E 018°07'2 0.3
2014-Sep-14 07:23N 59°20' E 018°12'4 0.3
2014-Sep-13 15:17N 59°23' E 018°18'4 0.5
2014-Sep-13 07:19N 59°20' E 018°12'4 3.9
2014-Sep-13 06:25N 59°20' E 018°05'0 0.0
2014-Sep-13 05:33N 59°20' E 018°05'0 0.0
2014-Sep-13 04:30N 59°20' E 018°05'0 0.0
2014-Sep-13 03:33N 59°20' E 018°05'0 0.0
2014-Sep-13 02:33N 59°20' E 018°05'0 0.0
2014-Sep-13 01:33N 59°20' E 018°05'0 0.0
2014-Sep-13 00:33N 59°20' E 018°05'0 0.0
2014-Sep-12 23:31N 59°20' E 018°05'0 0.0
2014-Sep-12 22:33N 59°20' E 018°05'0 0.0
2014-Sep-12 21:26N 59°20' E 018°05'  

Dump ship's entire track history